createdAt,value
2023-01-21T00:01:20.273Z,20.95
2023-01-21T00:03:47.775Z,20.77
2023-01-21T00:06:15.579Z,20.42
2023-01-21T00:08:43.171Z,20.88
2023-01-21T00:11:14.755Z,21.35
2023-01-21T00:13:44.199Z,20.50
2023-01-21T00:16:12.603Z,20.38
2023-01-21T00:18:40.325Z,20.75
2023-01-21T00:21:07.919Z,18.88
2023-01-21T00:23:35.463Z,20.90
2023-01-21T00:26:05.346Z,20.52
2023-01-21T00:28:35.735Z,19.63
2023-01-21T00:31:06.386Z,17.83
2023-01-21T00:33:34.552Z,18.35
2023-01-21T00:36:03.666Z,19.65
2023-01-21T00:38:32.023Z,17.02
2023-01-21T00:41:11.009Z,16.38
2023-01-21T00:43:39.578Z,16.98
2023-01-21T00:46:07.473Z,17.30
2023-01-21T00:48:35.635Z,17.05
2023-01-21T00:51:03.792Z,16.50
2023-01-21T00:53:33.815Z,17.63
2023-01-21T00:56:03.263Z,16.35
2023-01-21T00:58:31.535Z,17.13
2023-01-21T01:01:11.036Z,18.65
2023-01-21T01:03:39.785Z,17.42
2023-01-21T01:06:19.574Z,17.65
2023-01-21T01:08:47.838Z,18.70
2023-01-21T01:11:16.243Z,21.98
2023-01-21T01:13:44.205Z,21.65
2023-01-21T01:16:14.899Z,22.48
2023-01-21T01:18:43.073Z,25.73
2023-01-21T01:21:16.164Z,35.90
2023-01-21T01:23:44.313Z,39.08
2023-01-21T01:26:15.017Z,55.00
2023-01-21T01:28:43.085Z,35.95
2023-01-21T01:31:13.696Z,32.05
2023-01-21T01:33:41.543Z,24.60
2023-01-21T01:36:14.065Z,26.40
2023-01-21T01:38:41.975Z,24.63
2023-01-21T01:41:15.760Z,23.83
2023-01-21T01:44:25.633Z,24.10
2023-01-21T01:46:58.703Z,22.77
2023-01-21T01:49:26.190Z,26.38
2023-01-21T01:51:59.170Z,27.55
2023-01-21T01:54:41.914Z,31.08
2023-01-21T01:57:12.836Z,31.75
2023-01-21T01:59:41.325Z,30.85
2023-01-21T02:02:16.700Z,41.90
2023-01-21T02:04:54.390Z,45.28
2023-01-21T02:07:24.929Z,30.83
2023-01-21T02:09:53.809Z,51.33
2023-01-21T02:12:22.503Z,39.60
2023-01-21T02:14:50.548Z,43.25
2023-01-21T02:17:20.787Z,39.20
2023-01-21T02:19:48.169Z,43.80
2023-01-21T02:22:28.128Z,33.63
2023-01-21T02:25:32.823Z,34.80
2023-01-21T02:28:18.860Z,36.85
2023-01-21T02:31:24.621Z,39.85
2023-01-21T02:34:10.566Z,46.90
2023-01-21T02:36:54.734Z,36.30
2023-01-21T02:39:48.708Z,30.00
2023-01-21T02:42:46.627Z,38.53
2023-01-21T02:45:46.773Z,38.03
2023-01-21T02:48:19.633Z,30.25
2023-01-21T02:50:50.812Z,27.02
2023-01-21T02:53:27.433Z,25.25
2023-01-21T02:55:57.657Z,24.73
2023-01-21T02:58:29.312Z,25.05
2023-01-21T03:01:12.372Z,24.98
2023-01-21T03:03:46.489Z,26.52
2023-01-21T03:07:04.396Z,28.17
2023-01-21T03:09:33.926Z,28.92
2023-01-21T03:12:25.792Z,33.70
2023-01-21T03:15:29.934Z,28.83
2023-01-21T03:18:08.980Z,26.13
2023-01-21T03:21:02.608Z,23.98
2023-01-21T03:23:35.818Z,22.58
2023-01-21T03:26:05.480Z,20.75
2023-01-21T03:28:38.724Z,19.77
2023-01-21T03:31:13.051Z,20.70
2023-01-21T03:33:46.795Z,24.02
2023-01-21T03:36:26.670Z,21.33
2023-01-21T03:38:57.887Z,22.98
2023-01-21T03:41:33.659Z,21.05
2023-01-21T03:44:01.350Z,24.63
2023-01-21T03:46:44.105Z,24.50
2023-01-21T03:49:19.292Z,30.38
2023-01-21T03:51:52.839Z,23.05
2023-01-21T03:56:47.532Z,37.03
2023-01-21T03:59:15.124Z,26.92
2023-01-21T04:01:42.690Z,31.52
2023-01-21T04:04:10.363Z,33.25
2023-01-21T04:06:37.762Z,30.25
2023-01-21T04:09:06.782Z,43.40
2023-01-21T04:11:34.736Z,24.10
2023-01-21T04:14:02.581Z,23.20
2023-01-21T04:16:30.804Z,23.58
2023-01-21T04:18:58.394Z,20.67
2023-01-21T04:21:25.845Z,21.77
2023-01-21T04:23:54.070Z,23.38
2023-01-21T04:26:21.512Z,20.20
2023-01-21T04:28:49.015Z,21.48
2023-01-21T04:31:16.631Z,24.35
2023-01-21T04:33:44.215Z,20.33
2023-01-21T04:36:11.727Z,22.48
2023-01-21T04:38:39.399Z,19.40
2023-01-21T04:41:06.945Z,21.00
2023-01-21T04:43:34.474Z,20.85
2023-01-21T04:46:02.121Z,24.17
2023-01-21T04:48:29.702Z,23.95
2023-01-21T04:50:57.225Z,25.02
2023-01-21T04:53:24.950Z,21.38
2023-01-21T04:55:52.849Z,30.27
2023-01-21T04:58:21.167Z,25.90
2023-01-21T05:00:48.744Z,23.98
2023-01-21T05:03:16.563Z,31.30
2023-01-21T05:05:44.052Z,22.58
2023-01-21T05:08:11.620Z,31.40
2023-01-21T05:10:39.324Z,34.58
2023-01-21T05:13:06.844Z,30.58
2023-01-21T05:15:34.332Z,22.13
2023-01-21T05:18:01.878Z,21.17
2023-01-21T05:20:29.484Z,21.05
2023-01-21T05:22:58.026Z,21.15
2023-01-21T05:25:25.424Z,21.05
2023-01-21T05:27:54.804Z,19.20
2023-01-21T05:30:22.420Z,20.67
2023-01-21T05:32:54.326Z,21.08
2023-01-21T05:35:23.381Z,22.50
2023-01-21T05:37:51.074Z,21.42
2023-01-21T05:40:19.414Z,21.83
2023-01-21T05:42:47.444Z,19.38
2023-01-21T05:45:15.298Z,20.00
2023-01-21T05:47:42.964Z,19.63
2023-01-21T05:50:11.209Z,17.58
2023-01-21T05:52:39.103Z,18.38
2023-01-21T05:55:06.913Z,15.88
2023-01-21T05:57:34.870Z,17.00
2023-01-21T06:00:02.332Z,16.65
2023-01-21T06:02:32.361Z,17.15
2023-01-21T06:04:59.914Z,17.20
2023-01-21T06:07:27.367Z,16.27
2023-01-21T06:09:54.887Z,17.15
2023-01-21T06:12:24.663Z,17.13
2023-01-21T06:14:52.391Z,17.10
2023-01-21T06:17:19.886Z,19.05
2023-01-21T06:19:47.482Z,18.65
2023-01-21T06:22:16.598Z,18.15
2023-01-21T06:24:44.850Z,19.10
2023-01-21T06:27:12.731Z,18.25
2023-01-21T06:29:40.248Z,19.70
2023-01-21T06:32:07.948Z,21.67
2023-01-21T06:34:35.585Z,22.23
2023-01-21T06:37:03.074Z,21.77
2023-01-21T06:39:30.564Z,20.92
2023-01-21T06:41:58.021Z,20.90
2023-01-21T06:44:25.586Z,20.95
2023-01-21T06:47:00.658Z,20.75
2023-01-21T06:49:28.814Z,20.48
2023-01-21T06:51:56.634Z,23.15
2023-01-21T06:54:24.231Z,21.73
2023-01-21T06:56:51.743Z,19.75
2023-01-21T06:59:19.361Z,20.75
2023-01-21T07:01:46.850Z,20.80
2023-01-21T07:04:14.409Z,23.38
2023-01-21T07:06:41.903Z,21.75
2023-01-21T07:09:09.589Z,24.52
2023-01-21T07:11:37.128Z,22.58
2023-01-21T07:14:04.661Z,22.00
2023-01-21T07:16:32.128Z,21.15
2023-01-21T07:18:59.654Z,20.58
2023-01-21T07:21:27.160Z,20.75
2023-01-21T07:23:55.701Z,20.17
2023-01-21T07:26:23.596Z,22.77
2023-01-21T07:28:51.186Z,23.83
2023-01-21T07:31:18.716Z,23.00
2023-01-21T07:33:46.329Z,23.52
2023-01-21T07:36:13.792Z,23.27
2023-01-21T07:38:41.464Z,23.05
2023-01-21T07:41:08.940Z,21.77
2023-01-21T07:43:36.480Z,24.58
2023-01-21T07:46:03.943Z,22.45
2023-01-21T07:48:31.872Z,22.27
2023-01-21T07:51:00.143Z,24.20
2023-01-21T07:53:27.682Z,23.88
2023-01-21T07:55:55.171Z,22.58
2023-01-21T07:58:22.664Z,23.00
2023-01-21T08:00:50.174Z,23.08
2023-01-21T08:03:20.194Z,25.58
2023-01-21T08:05:47.802Z,24.92
2023-01-21T08:08:15.263Z,24.15
2023-01-21T08:10:42.810Z,24.73
2023-01-21T08:13:10.463Z,25.30
2023-01-21T08:15:38.056Z,25.80
2023-01-21T08:18:05.565Z,25.50
2023-01-21T08:20:33.623Z,26.55
2023-01-21T08:23:01.505Z,23.70
2023-01-21T08:25:29.010Z,25.88
2023-01-21T08:27:59.192Z,28.35
2023-01-21T08:30:26.840Z,26.13
2023-01-21T08:32:54.300Z,25.70
2023-01-21T08:35:21.973Z,25.42
2023-01-21T08:37:49.953Z,27.17
2023-01-21T08:40:17.557Z,24.88
2023-01-21T08:42:45.015Z,26.38
2023-01-21T08:45:15.327Z,25.42
2023-01-21T08:47:42.984Z,26.25
2023-01-21T08:50:11.103Z,26.10
2023-01-21T08:52:39.200Z,25.85
2023-01-21T08:55:07.057Z,27.35
2023-01-21T08:57:34.629Z,26.50
2023-01-21T09:00:02.170Z,26.70
2023-01-21T09:02:29.771Z,25.10
2023-01-21T09:04:57.255Z,26.40
2023-01-21T09:07:24.784Z,26.13
2023-01-21T09:09:52.239Z,28.35
2023-01-21T09:12:19.809Z,27.73
2023-01-21T09:14:47.303Z,27.05
2023-01-21T09:17:14.855Z,27.73
2023-01-21T09:19:42.295Z,27.58
2023-01-21T09:22:09.867Z,27.25
2023-01-21T09:24:37.430Z,26.13
2023-01-21T09:27:07.438Z,26.38
2023-01-21T09:29:35.210Z,26.90
2023-01-21T09:32:03.259Z,25.63
2023-01-21T09:34:31.983Z,25.23
2023-01-21T09:37:00.493Z,26.08
2023-01-21T09:39:27.933Z,25.73
2023-01-21T09:41:58.211Z,24.42
2023-01-21T09:44:35.096Z,25.27
2023-01-21T09:47:21.533Z,24.75
2023-01-21T09:49:54.421Z,22.80
2023-01-21T09:52:36.613Z,22.38
2023-01-21T09:55:06.553Z,22.27
2023-01-21T09:58:09.263Z,23.17
2023-01-21T10:01:14.863Z,21.38
2023-01-21T10:03:53.280Z,22.90
2023-01-21T10:06:29.660Z,23.95
2023-01-21T10:09:12.012Z,24.88
2023-01-21T10:11:50.575Z,23.42
2023-01-21T10:15:04.367Z,22.35
2023-01-21T10:18:01.484Z,18.93
2023-01-21T10:20:34.254Z,21.77
2023-01-21T10:23:15.056Z,22.67
2023-01-21T10:25:43.105Z,20.52
2023-01-21T10:28:18.562Z,22.45
2023-01-21T10:30:50.704Z,23.88
2023-01-21T10:33:31.254Z,23.35
2023-01-21T10:36:21.351Z,23.13
2023-01-21T10:38:55.081Z,22.17
2023-01-21T10:41:25.411Z,22.33
2023-01-21T10:44:17.604Z,22.67
2023-01-21T10:46:57.004Z,23.08
2023-01-21T10:54:22.759Z,22.38
2023-01-21T10:57:05.188Z,20.15
2023-01-21T10:59:36.148Z,21.67
2023-01-21T11:02:10.138Z,22.52
2023-01-21T11:04:41.054Z,23.65
2023-01-21T11:07:12.625Z,21.23
2023-01-21T11:09:46.740Z,22.48
2023-01-21T11:12:21.682Z,21.08
2023-01-21T11:14:55.693Z,22.65
2023-01-21T11:17:38.169Z,20.13
2023-01-21T11:20:28.046Z,20.90
2023-01-21T11:22:55.613Z,19.98
2023-01-21T11:25:28.341Z,21.40
2023-01-21T11:27:55.885Z,21.47
2023-01-21T11:30:49.625Z,20.45
2023-01-21T11:33:27.290Z,19.75
2023-01-21T11:35:55.991Z,19.27
2023-01-21T11:38:25.066Z,18.75
2023-01-21T11:41:04.584Z,19.08
2023-01-21T11:43:35.094Z,19.50
2023-01-21T11:46:21.070Z,19.67
2023-01-21T11:48:48.846Z,18.95
2023-01-21T11:51:18.061Z,18.83
2023-01-21T11:53:46.913Z,20.17
2023-01-21T11:56:16.731Z,18.35
2023-01-21T11:58:44.364Z,18.75
2023-01-21T12:01:22.182Z,17.73
2023-01-21T12:03:53.932Z,17.20
2023-01-21T12:06:26.432Z,18.13
2023-01-21T12:08:58.433Z,18.50
2023-01-21T12:11:29.587Z,16.98
2023-01-21T12:14:24.607Z,18.83
2023-01-21T12:16:52.109Z,18.73
2023-01-21T12:19:51.635Z,18.33
2023-01-21T12:22:31.183Z,18.73
2023-01-21T12:25:29.263Z,19.45
2023-01-21T12:28:38.858Z,19.38
2023-01-21T12:31:15.477Z,19.83
2023-01-21T12:34:06.162Z,19.05
2023-01-21T12:36:43.271Z,20.13
2023-01-21T12:39:30.079Z,19.17
2023-01-21T12:42:03.624Z,19.65
2023-01-21T12:44:42.899Z,19.98
2023-01-21T12:47:20.401Z,18.83
2023-01-21T12:50:09.524Z,19.77
2023-01-21T12:53:09.488Z,19.55
2023-01-21T12:56:04.718Z,18.60
2023-01-21T12:58:40.929Z,17.70
2023-01-21T13:01:14.479Z,18.92
2023-01-21T13:06:29.724Z,18.42
2023-01-21T13:09:57.771Z,18.20
2023-01-21T13:12:29.742Z,19.30
2023-01-21T13:15:02.077Z,19.50
2023-01-21T13:17:34.116Z,18.75
2023-01-21T13:20:13.165Z,18.90
2023-01-21T13:22:46.904Z,17.83
2023-01-21T13:25:26.869Z,19.02
2023-01-21T13:28:20.413Z,19.52
2023-01-21T13:31:06.552Z,20.02
2023-01-21T13:34:02.880Z,16.42
2023-01-21T13:37:21.332Z,18.08
2023-01-21T13:39:54.647Z,18.90
2023-01-21T13:42:59.344Z,17.13
2023-01-21T13:45:35.633Z,16.83
2023-01-21T13:48:12.146Z,18.35
2023-01-21T13:50:58.372Z,18.33
2023-01-21T13:53:38.836Z,17.13
2023-01-21T13:56:56.360Z,17.40
2023-01-21T13:59:31.685Z,16.92
2023-01-21T14:02:25.178Z,18.13
2023-01-21T14:05:07.475Z,16.73
2023-01-21T14:07:40.864Z,17.23
2023-01-21T14:10:18.363Z,17.10
2023-01-21T14:13:16.704Z,16.80
2023-01-21T14:15:47.188Z,17.23
2023-01-21T14:18:40.929Z,16.33
2023-01-21T14:21:22.096Z,16.15
2023-01-21T14:24:34.491Z,17.33
2023-01-21T14:27:46.345Z,16.65
2023-01-21T14:30:23.504Z,17.50
2023-01-21T14:33:15.165Z,17.02
2023-01-21T14:35:48.743Z,16.50
2023-01-21T14:38:34.983Z,18.42
2023-01-21T14:41:11.493Z,17.70
2023-01-21T14:43:40.614Z,17.58
2023-01-21T14:46:34.244Z,16.60
2023-01-21T14:49:12.198Z,17.95
2023-01-21T14:51:50.252Z,17.15
2023-01-21T14:54:26.994Z,17.20
2023-01-21T14:57:04.158Z,16.85
2023-01-21T14:59:41.813Z,17.05
2023-01-21T15:02:29.957Z,15.63
2023-01-21T15:05:00.267Z,17.30
2023-01-21T15:07:48.834Z,16.13
2023-01-21T15:10:25.971Z,15.75
2023-01-21T15:13:00.413Z,16.38
2023-01-21T15:15:35.098Z,16.15
2023-01-21T15:18:23.714Z,16.08
2023-01-21T15:21:00.689Z,15.02
2023-01-21T15:23:31.226Z,14.95
2023-01-21T15:26:05.348Z,14.52
2023-01-21T15:28:40.497Z,15.50
2023-01-21T15:31:11.309Z,14.70
2023-01-21T15:33:46.526Z,14.45
2023-01-21T15:36:31.376Z,14.25
2023-01-21T15:39:14.171Z,14.60
2023-01-21T15:42:00.718Z,14.23
2023-01-21T15:44:42.618Z,14.20
2023-01-21T15:47:28.629Z,15.05
2023-01-21T15:50:29.938Z,13.32
2023-01-21T15:53:03.332Z,14.18
2023-01-21T15:55:49.139Z,13.98
2023-01-21T15:58:22.709Z,13.20
2023-01-21T16:01:25.863Z,13.05
2023-01-21T16:04:27.090Z,13.50
2023-01-21T16:07:15.504Z,13.75
2023-01-21T16:10:01.846Z,12.82
2023-01-21T16:12:49.631Z,13.13
2023-01-21T16:15:26.213Z,13.38
2023-01-21T16:18:05.654Z,13.48
2023-01-21T16:20:34.004Z,12.80
2023-01-21T16:23:06.051Z,12.68
2023-01-21T16:25:33.803Z,12.88
2023-01-21T16:28:01.275Z,13.10
2023-01-21T16:30:31.192Z,12.27
2023-01-21T16:33:16.432Z,13.15
2023-01-21T16:35:53.135Z,11.02
2023-01-21T16:38:31.989Z,13.38
2023-01-21T16:41:08.499Z,11.68
2023-01-21T16:43:49.548Z,12.00
2023-01-21T16:46:19.693Z,12.38
2023-01-21T16:48:52.584Z,11.93
2023-01-21T16:51:23.820Z,11.18
2023-01-21T16:54:20.114Z,11.35
2023-01-21T16:56:55.193Z,11.68
2023-01-21T16:59:44.725Z,12.02
2023-01-21T17:02:33.518Z,10.48
2023-01-21T17:05:05.297Z,11.68
2023-01-21T17:07:38.050Z,12.23
2023-01-21T17:10:07.231Z,11.82
2023-01-21T17:12:36.484Z,12.00
2023-01-21T17:15:16.609Z,12.52
2023-01-21T17:17:44.644Z,11.35
2023-01-21T17:21:10.853Z,11.45
2023-01-21T17:23:38.304Z,11.90
2023-01-21T17:26:16.712Z,11.38
2023-01-21T17:29:03.321Z,14.52
2023-01-21T17:31:35.351Z,12.82
2023-01-21T17:34:07.628Z,11.07
2023-01-21T17:36:38.326Z,12.93
2023-01-21T17:39:07.697Z,13.25
2023-01-21T17:41:38.016Z,11.80
2023-01-21T17:44:16.050Z,10.55
2023-01-21T17:46:48.938Z,11.35
2023-01-21T17:49:26.519Z,11.27
2023-01-21T17:51:55.548Z,11.90
2023-01-21T17:54:29.477Z,10.98
2023-01-21T17:56:59.061Z,11.10
2023-01-21T17:59:34.486Z,11.93
2023-01-21T18:02:04.594Z,11.45
2023-01-21T18:04:32.165Z,11.15
2023-01-21T18:06:59.821Z,10.32
2023-01-21T18:09:28.595Z,12.07
2023-01-21T18:11:58.175Z,10.50
2023-01-21T18:14:26.933Z,11.02
2023-01-21T18:16:54.978Z,12.93
2023-01-21T18:19:32.441Z,14.13
2023-01-21T18:22:02.567Z,15.02
2023-01-21T18:24:30.166Z,13.73
2023-01-21T18:27:00.265Z,19.30
2023-01-21T18:29:30.455Z,15.35
2023-01-21T18:31:58.981Z,16.10
2023-01-21T18:34:26.531Z,25.67
2023-01-21T18:36:56.284Z,15.57
2023-01-21T18:39:24.399Z,15.32
2023-01-21T18:41:51.872Z,16.15
2023-01-21T18:44:19.421Z,27.08
2023-01-21T18:46:47.997Z,20.25
2023-01-21T18:49:17.526Z,15.73
2023-01-21T18:51:45.883Z,38.58
2023-01-21T18:54:14.706Z,36.95
2023-01-21T18:56:43.037Z,38.00
2023-01-21T18:59:15.596Z,48.40
2023-01-21T19:01:43.998Z,43.50
2023-01-21T19:04:15.800Z,26.23
2023-01-21T19:06:43.906Z,43.67
2023-01-21T19:09:29.660Z,59.63
2023-01-21T19:11:57.153Z,37.40
2023-01-21T19:14:24.540Z,50.42
2023-01-21T19:16:52.116Z,67.70
2023-01-21T19:19:20.013Z,51.15
2023-01-21T19:21:47.654Z,51.97
2023-01-21T19:24:15.109Z,57.92
2023-01-21T19:26:42.875Z,43.25
2023-01-21T19:29:15.517Z,43.20
2023-01-21T19:31:43.141Z,56.22
2023-01-21T19:34:10.690Z,46.80
2023-01-21T19:36:39.994Z,34.83
2023-01-21T19:39:15.902Z,67.15
2023-01-21T19:41:43.688Z,43.47
2023-01-21T19:44:11.091Z,39.22
2023-01-21T19:46:38.869Z,50.42
2023-01-21T19:49:17.247Z,46.13
2023-01-21T19:51:44.853Z,50.42
2023-01-21T19:54:12.345Z,39.80
2023-01-21T19:56:39.843Z,57.00
2023-01-21T19:59:07.496Z,52.72
2023-01-21T20:01:35.102Z,43.63
2023-01-21T20:04:02.659Z,12.85
2023-01-21T20:06:37.290Z,44.33
2023-01-21T20:09:05.444Z,47.22
2023-01-21T20:11:33.955Z,43.58
2023-01-21T20:14:01.823Z,62.90
2023-01-21T20:16:31.300Z,36.28
2023-01-21T20:19:02.228Z,56.90
2023-01-21T20:21:29.803Z,26.88
2023-01-21T20:23:57.305Z,50.20
2023-01-21T20:26:27.410Z,28.80
2023-01-21T20:28:55.000Z,39.47
2023-01-21T20:31:22.643Z,24.02
2023-01-21T20:33:50.172Z,28.77
2023-01-21T20:36:23.927Z,24.77
2023-01-21T20:38:52.679Z,38.30
2023-01-21T20:41:20.310Z,34.53
2023-01-21T20:43:47.918Z,22.00
2023-01-21T20:46:25.912Z,46.45
2023-01-21T20:48:53.656Z,38.50
2023-01-21T20:51:21.466Z,24.70
2023-01-21T20:53:49.116Z,29.50
2023-01-21T20:56:27.081Z,34.83
2023-01-21T20:58:54.666Z,45.30
2023-01-21T21:01:24.906Z,29.85
2023-01-21T21:03:53.264Z,56.03
2023-01-21T21:06:23.406Z,36.38
2023-01-21T21:08:51.678Z,38.30
2023-01-21T21:11:19.345Z,24.85
2023-01-21T21:13:49.475Z,35.83
2023-01-21T21:16:34.102Z,49.72
2023-01-21T21:19:01.664Z,31.08
2023-01-21T21:21:29.064Z,62.05
2023-01-21T21:23:56.696Z,52.30
2023-01-21T21:26:26.735Z,47.70
2023-01-21T21:28:55.143Z,46.58
2023-01-21T21:31:23.845Z,39.80
2023-01-21T21:33:51.859Z,58.35
2023-01-21T21:36:21.850Z,63.90
2023-01-21T21:38:50.117Z,40.05
2023-01-21T21:41:41.124Z,25.33
2023-01-21T21:44:09.444Z,43.97
2023-01-21T21:46:56.057Z,49.08
2023-01-21T21:49:24.101Z,47.70
2023-01-21T21:51:51.861Z,69.60
2023-01-21T21:54:19.847Z,61.22
2023-01-21T21:56:48.008Z,70.43
2023-01-21T21:59:15.921Z,50.67
2023-01-21T22:01:44.560Z,55.63
2023-01-21T22:04:12.660Z,43.15
2023-01-21T22:06:40.492Z,22.15
2023-01-21T22:09:08.516Z,47.17
2023-01-21T22:11:36.034Z,38.42
2023-01-21T22:14:04.225Z,49.13
2023-01-21T22:16:32.988Z,56.13
2023-01-21T22:19:01.605Z,61.15
2023-01-21T22:21:32.900Z,52.42
2023-01-21T22:24:02.897Z,78.63
2023-01-21T22:26:30.631Z,68.60
2023-01-21T22:28:58.504Z,69.05
2023-01-21T22:31:29.583Z,69.45
2023-01-21T22:33:58.469Z,58.30
2023-01-21T22:36:28.515Z,59.10
2023-01-21T22:38:56.162Z,39.90
2023-01-21T22:41:24.937Z,26.05
2023-01-21T22:43:53.287Z,68.63
2023-01-21T22:46:24.269Z,68.43
2023-01-21T22:48:53.498Z,53.25
2023-01-21T22:51:23.257Z,37.30
2023-01-21T22:53:52.175Z,59.83
2023-01-21T22:56:23.606Z,36.20
2023-01-21T22:58:59.939Z,44.33
2023-01-21T23:01:31.685Z,33.35
2023-01-21T23:04:00.363Z,40.35
2023-01-21T23:06:28.736Z,27.70
2023-01-21T23:08:56.297Z,55.15
2023-01-21T23:11:23.925Z,43.05
2023-01-21T23:13:53.394Z,60.00
2023-01-21T23:16:21.763Z,48.22
2023-01-21T23:18:49.724Z,45.05
2023-01-21T23:21:20.316Z,60.85
2023-01-21T23:23:48.596Z,37.92
2023-01-21T23:26:18.483Z,63.13
2023-01-21T23:28:46.540Z,23.98
2023-01-21T23:31:16.469Z,53.05
2023-01-21T23:33:44.164Z,38.03
2023-01-21T23:36:13.743Z,51.25
2023-01-21T23:38:42.084Z,51.08
2023-01-21T23:41:12.460Z,41.47
2023-01-21T23:43:40.852Z,59.67
2023-01-21T23:46:12.147Z,57.78
2023-01-21T23:48:39.963Z,64.32
2023-01-21T23:51:11.116Z,38.97
2023-01-21T23:53:38.651Z,67.28
2023-01-21T23:56:09.944Z,38.38
2023-01-21T23:58:37.424Z,46.85
